Moosonee Airport
CYMO : now visible

Airfield :











YOU CAN JOIN US ON...

 
LOGIN :

Register | Disclaimer

   EN    FR    IT 

 









Legend :    VFR   Marginal VFR   IFR   Intensive IFR   Very Intensive IFR
Visi :
Ceiling :
>= 8 km
>= 3000ft
5 to 8 km
1000 to 3000 ft
1500m to 5 km
500 to 1000 ft
800 to 1500m
200 to 500 ft
< 800m
< 200 ft
Symbols :   Thunderstorms  Fog  Heavy snow  Heavy precipitations  Wind > 20 kt







- Airport Elevation : 30 ft
- IATA code : YMO


CYMO - Moosonee

CURRENT METAR :
  • 222300Z AUTO 35004KT 9SM OVC033 14/09 A3004 RMK SLP174

EXPIRED METARs :
  • 222200Z AUTO 30010G15KT 9SM OVC031 14/10 A3003 RMK SLP173
  • 222100Z AUTO 34012KT 9SM BKN025 OVC032 14/09 A3004 RMK SLP175

TAF TAF CYMO
Valid from the 23 at 00:00 until the 23 at 12:00 UTC


222338Z 2300/2312 35007KT P6SM BKN015
TEMPO 2300/2301 BKN030
FM230100 35005KT P6SM OVC012
TEMPO 2301/2304 4SM BR OVC007
FM230400 33005KT 3SM -DZ BR OVC007
TEMPO 2304/2312 6SM BR OVC012 RMK FCST BASED ON AUTO OBS. NXT FCST BY 230600Z
No reported NOTAMs for that airfield.



MET'MAP, your aeronautical weather chart ! - Copyright ORBIFLY December 2007 - Disclaimer

ORBIFLY MET'MAP TEAM :

Programming & Development : Alexandra Zaïnal
Concept & Development : Baudouin d'Aumeries
Co-Development & Prog : Marc-Olivier Méhu
Technical & hardware support : Manuel Goepfert

Contact : metmap@orbifly.com




SOURCES & CREDITS :

   NOAA       Earth
Advisory